sensor_id;sensor_type;location;lat;lon;timestamp;temperature;humidity
10468;DHT22;5281;48.878;9.394;2023-05-07T00:02:10;15.90;99.90
10468;DHT22;5281;48.878;9.394;2023-05-07T00:04:37;16.00;99.90
10468;DHT22;5281;48.878;9.394;2023-05-07T00:07:04;16.00;99.90
10468;DHT22;5281;48.878;9.394;2023-05-07T00:09:31;16.00;99.90
10468;DHT22;5281;48.878;9.394;2023-05-07T00:11:57;16.00;99.90
10468;DHT22;5281;48.878;9.394;2023-05-07T00:14:25;16.00;99.90
10468;DHT22;5281;48.878;9.394;2023-05-07T00:16:53;16.00;99.90
10468;DHT22;5281;48.878;9.394;2023-05-07T00:19:19;16.00;99.90
10468;DHT22;5281;48.878;9.394;2023-05-07T00:21:46;16.00;99.90
10468;DHT22;5281;48.878;9.394;2023-05-07T00:24:13;16.00;99.90
10468;DHT22;5281;48.878;9.394;2023-05-07T00:26:39;16.00;99.90
10468;DHT22;5281;48.878;9.394;2023-05-07T00:29:06;16.00;99.90
10468;DHT22;5281;48.878;9.394;2023-05-07T00:31:33;16.00;99.90
10468;DHT22;5281;48.878;9.394;2023-05-07T00:34:02;15.90;99.90
10468;DHT22;5281;48.878;9.394;2023-05-07T00:36:28;15.90;99.90
10468;DHT22;5281;48.878;9.394;2023-05-07T00:38:56;15.80;99.90
10468;DHT22;5281;48.878;9.394;2023-05-07T00:41:23;15.70;99.90
10468;DHT22;5281;48.878;9.394;2023-05-07T00:43:50;15.60;99.90
10468;DHT22;5281;48.878;9.394;2023-05-07T00:46:18;15.60;99.90
10468;DHT22;5281;48.878;9.394;2023-05-07T00:48:46;15.50;99.90
10468;DHT22;5281;48.878;9.394;2023-05-07T00:51:15;15.40;99.90
10468;DHT22;5281;48.878;9.394;2023-05-07T00:53:42;15.40;99.90
10468;DHT22;5281;48.878;9.394;2023-05-07T00:56:09;15.30;99.90
10468;DHT22;5281;48.878;9.394;2023-05-07T00:58:36;15.20;99.90
10468;DHT22;5281;48.878;9.394;2023-05-07T01:01:03;15.10;99.90
10468;DHT22;5281;48.878;9.394;2023-05-07T01:03:30;15.00;99.90
10468;DHT22;5281;48.878;9.394;2023-05-07T01:05:58;15.00;99.90
10468;DHT22;5281;48.878;9.394;2023-05-07T01:08:28;15.00;99.90
10468;DHT22;5281;48.878;9.394;2023-05-07T01:10:56;14.90;99.90
10468;DHT22;5281;48.878;9.394;2023-05-07T01:13:24;14.80;99.90
10468;DHT22;5281;48.878;9.394;2023-05-07T01:15:51;14.80;99.90
10468;DHT22;5281;48.878;9.394;2023-05-07T01:18:18;14.80;99.90
10468;DHT22;5281;48.878;9.394;2023-05-07T01:20:45;14.80;99.90
10468;DHT22;5281;48.878;9.394;2023-05-07T01:23:13;14.80;99.90
10468;DHT22;5281;48.878;9.394;2023-05-07T01:25:40;14.80;99.90
10468;DHT22;5281;48.878;9.394;2023-05-07T01:28:07;14.70;99.90
10468;DHT22;5281;48.878;9.394;2023-05-07T01:30:34;14.70;99.90
10468;DHT22;5281;48.878;9.394;2023-05-07T01:33:04;14.60;99.90
10468;DHT22;5281;48.878;9.394;2023-05-07T01:35:36;14.60;99.90
10468;DHT22;5281;48.878;9.394;2023-05-07T01:38:04;14.60;99.90
10468;DHT22;5281;48.878;9.394;2023-05-07T01:40:33;14.60;99.90
10468;DHT22;5281;48.878;9.394;2023-05-07T01:43:01;14.60;99.90
10468;DHT22;5281;48.878;9.394;2023-05-07T01:45:28;14.60;99.90
10468;DHT22;5281;48.878;9.394;2023-05-07T01:47:58;14.60;99.90
10468;DHT22;5281;48.878;9.394;2023-05-07T01:50:25;14.60;99.90
10468;DHT22;5281;48.878;9.394;2023-05-07T01:52:52;14.60;99.90
10468;DHT22;5281;48.878;9.394;2023-05-07T01:55:19;14.60;99.90
10468;DHT22;5281;48.878;9.394;2023-05-07T01:57:47;14.60;99.90
10468;DHT22;5281;48.878;9.394;2023-05-07T02:00:14;14.60;99.90
10468;DHT22;5281;48.878;9.394;2023-05-07T02:02:41;14.60;99.90
10468;DHT22;5281;48.878;9.394;2023-05-07T02:05:08;14.60;99.90
10468;DHT22;5281;48.878;9.394;2023-05-07T02:07:35;14.60;99.90
10468;DHT22;5281;48.878;9.394;2023-05-07T02:10:02;14.60;99.90
10468;DHT22;5281;48.878;9.394;2023-05-07T02:12:29;14.60;99.90
10468;DHT22;5281;48.878;9.394;2023-05-07T02:14:57;14.50;99.90
10468;DHT22;5281;48.878;9.394;2023-05-07T02:17:24;14.50;99.90
10468;DHT22;5281;48.878;9.394;2023-05-07T02:19:50;14.50;99.90
10468;DHT22;5281;48.878;9.394;2023-05-07T02:22:17;14.50;99.90
10468;DHT22;5281;48.878;9.394;2023-05-07T02:24:44;14.50;99.90
10468;DHT22;5281;48.878;9.394;2023-05-07T02:27:11;14.50;99.90
10468;DHT22;5281;48.878;9.394;2023-05-07T02:29:38;14.40;99.90
10468;DHT22;5281;48.878;9.394;2023-05-07T02:32:06;14.40;99.90
10468;DHT22;5281;48.878;9.394;2023-05-07T02:34:33;14.30;99.90
10468;DHT22;5281;48.878;9.394;2023-05-07T02:36:59;14.20;99.90
10468;DHT22;5281;48.878;9.394;2023-05-07T02:39:26;14.20;99.90
10468;DHT22;5281;48.878;9.394;2023-05-07T02:41:53;14.20;99.90
10468;DHT22;5281;48.878;9.394;2023-05-07T02:44:19;14.20;99.90
10468;DHT22;5281;48.878;9.394;2023-05-07T02:46:46;14.10;99.90
10468;DHT22;5281;48.878;9.394;2023-05-07T02:49:14;14.00;99.90
10468;DHT22;5281;48.878;9.394;2023-05-07T02:51:41;13.90;99.90
10468;DHT22;5281;48.878;9.394;2023-05-07T02:54:07;13.90;99.90
10468;DHT22;5281;48.878;9.394;2023-05-07T02:56:34;13.90;99.90
10468;DHT22;5281;48.878;9.394;2023-05-07T02:59:01;13.80;99.90
10468;DHT22;5281;48.878;9.394;2023-05-07T03:01:27;13.80;99.90
10468;DHT22;5281;48.878;9.394;2023-05-07T03:03:54;13.80;99.90
10468;DHT22;5281;48.878;9.394;2023-05-07T03:06:22;13.70;99.90
10468;DHT22;5281;48.878;9.394;2023-05-07T03:08:50;13.70;99.90
10468;DHT22;5281;48.878;9.394;2023-05-07T03:11:16;13.70;99.90
10468;DHT22;5281;48.878;9.394;2023-05-07T03:13:43;13.70;99.90
10468;DHT22;5281;48.878;9.394;2023-05-07T03:16:10;13.70;99.90
10468;DHT22;5281;48.878;9.394;2023-05-07T03:18:37;13.70;99.90
10468;DHT22;5281;48.878;9.394;2023-05-07T03:21:03;13.70;99.90
10468;DHT22;5281;48.878;9.394;2023-05-07T03:23:32;13.70;99.90
10468;DHT22;5281;48.878;9.394;2023-05-07T03:25:58;13.70;99.90
10468;DHT22;5281;48.878;9.394;2023-05-07T03:28:25;13.70;99.90
10468;DHT22;5281;48.878;9.394;2023-05-07T03:30:52;13.70;99.90
10468;DHT22;5281;48.878;9.394;2023-05-07T03:33:18;13.70;99.90
10468;DHT22;5281;48.878;9.394;2023-05-07T03:35:45;13.60;99.90
10468;DHT22;5281;48.878;9.394;2023-05-07T03:38:12;13.60;99.90
10468;DHT22;5281;48.878;9.394;2023-05-07T03:40:40;13.60;99.90
10468;DHT22;5281;48.878;9.394;2023-05-07T03:43:07;13.50;99.90
10468;DHT22;5281;48.878;9.394;2023-05-07T03:45:33;13.50;99.90
10468;DHT22;5281;48.878;9.394;2023-05-07T03:48:00;13.40;99.90
10468;DHT22;5281;48.878;9.394;2023-05-07T03:50:27;13.40;99.90
10468;DHT22;5281;48.878;9.394;2023-05-07T03:52:54;13.30;99.90
10468;DHT22;5281;48.878;9.394;2023-05-07T03:55:20;13.30;99.90
10468;DHT22;5281;48.878;9.394;2023-05-07T03:57:49;13.30;99.90
10468;DHT22;5281;48.878;9.394;2023-05-07T04:00:16;13.40;99.90
10468;DHT22;5281;48.878;9.394;2023-05-07T04:02:42;13.40;99.90
10468;DHT22;5281;48.878;9.394;2023-05-07T04:05:09;13.30;99.90
10468;DHT22;5281;48.878;9.394;2023-05-07T04:07:36;13.20;99.90
10468;DHT22;5281;48.878;9.394;2023-05-07T04:10:04;13.20;99.90
10468;DHT22;5281;48.878;9.394;2023-05-07T04:12:31;13.10;99.90
10468;DHT22;5281;48.878;9.394;2023-05-07T04:14:59;13.20;99.90
10468;DHT22;5281;48.878;9.394;2023-05-07T04:17:25;13.30;99.90
10468;DHT22;5281;48.878;9.394;2023-05-07T04:19:52;13.30;99.90
10468;DHT22;5281;48.878;9.394;2023-05-07T04:22:19;13.40;99.90
10468;DHT22;5281;48.878;9.394;2023-05-07T04:24:45;13.50;99.90
10468;DHT22;5281;48.878;9.394;2023-05-07T04:27:12;13.60;99.90
10468;DHT22;5281;48.878;9.394;2023-05-07T04:29:39;13.70;99.90
10468;DHT22;5281;48.878;9.394;2023-05-07T04:32:09;13.80;99.90
10468;DHT22;5281;48.878;9.394;2023-05-07T04:34:35;13.90;99.90
10468;DHT22;5281;48.878;9.394;2023-05-07T04:37:02;14.00;99.90
10468;DHT22;5281;48.878;9.394;2023-05-07T04:39:29;14.10;99.90
10468;DHT22;5281;48.878;9.394;2023-05-07T04:41:55;14.20;99.90
10468;DHT22;5281;48.878;9.394;2023-05-07T04:44:22;14.40;99.90
10468;DHT22;5281;48.878;9.394;2023-05-07T04:46:50;14.60;99.90
10468;DHT22;5281;48.878;9.394;2023-05-07T04:49:18;14.80;99.90
10468;DHT22;5281;48.878;9.394;2023-05-07T04:51:45;15.00;99.90
10468;DHT22;5281;48.878;9.394;2023-05-07T04:54:11;15.30;99.90
10468;DHT22;5281;48.878;9.394;2023-05-07T04:56:38;15.60;99.90
10468;DHT22;5281;48.878;9.394;2023-05-07T04:59:05;15.90;99.90
10468;DHT22;5281;48.878;9.394;2023-05-07T05:01:32;16.20;99.90
10468;DHT22;5281;48.878;9.394;2023-05-07T05:03:59;16.30;99.90
10468;DHT22;5281;48.878;9.394;2023-05-07T05:06:28;16.40;99.90
10468;DHT22;5281;48.878;9.394;2023-05-07T05:08:55;16.30;99.90
10468;DHT22;5281;48.878;9.394;2023-05-07T05:11:21;16.40;99.90
10468;DHT22;5281;48.878;9.394;2023-05-07T05:13:49;16.50;99.90
10468;DHT22;5281;48.878;9.394;2023-05-07T05:16:15;16.50;99.90
10468;DHT22;5281;48.878;9.394;2023-05-07T05:18:42;16.50;99.90
10468;DHT22;5281;48.878;9.394;2023-05-07T05:21:09;16.30;99.90
10468;DHT22;5281;48.878;9.394;2023-05-07T05:23:37;16.20;99.90
10468;DHT22;5281;48.878;9.394;2023-05-07T05:26:04;16.10;99.90
10468;DHT22;5281;48.878;9.394;2023-05-07T05:28:31;16.00;99.90
10468;DHT22;5281;48.878;9.394;2023-05-07T05:30:57;16.00;99.90
10468;DHT22;5281;48.878;9.394;2023-05-07T05:33:24;15.90;99.90
10468;DHT22;5281;48.878;9.394;2023-05-07T05:35:51;16.00;99.90
10468;DHT22;5281;48.878;9.394;2023-05-07T05:38:18;15.90;99.90
10468;DHT22;5281;48.878;9.394;2023-05-07T05:40:47;15.80;99.90
10468;DHT22;5281;48.878;9.394;2023-05-07T05:43:14;16.00;99.90
10468;DHT22;5281;48.878;9.394;2023-05-07T05:45:41;16.30;99.90
10468;DHT22;5281;48.878;9.394;2023-05-07T05:48:08;16.60;99.90
10468;DHT22;5281;48.878;9.394;2023-05-07T05:50:34;17.00;99.90
10468;DHT22;5281;48.878;9.394;2023-05-07T05:53:02;18.50;99.90
10468;DHT22;5281;48.878;9.394;2023-05-07T05:55:31;20.00;99.90
10468;DHT22;5281;48.878;9.394;2023-05-07T05:58:01;20.60;99.90
10468;DHT22;5281;48.878;9.394;2023-05-07T06:00:27;20.50;99.90
10468;DHT22;5281;48.878;9.394;2023-05-07T06:02:54;21.00;99.90
10468;DHT22;5281;48.878;9.394;2023-05-07T06:05:21;21.90;99.90
10468;DHT22;5281;48.878;9.394;2023-05-07T06:07:48;22.90;99.90
10468;DHT22;5281;48.878;9.394;2023-05-07T06:10:15;23.80;99.90
10468;DHT22;5281;48.878;9.394;2023-05-07T06:12:41;24.90;99.90
10468;DHT22;5281;48.878;9.394;2023-05-07T06:15:10;26.40;99.90
10468;DHT22;5281;48.878;9.394;2023-05-07T06:17:37;28.00;98.10
10468;DHT22;5281;48.878;9.394;2023-05-07T06:20:08;29.70;94.80
10468;DHT22;5281;48.878;9.394;2023-05-07T06:22:35;31.50;90.90
10468;DHT22;5281;48.878;9.394;2023-05-07T06:25:02;33.00;79.70
10468;DHT22;5281;48.878;9.394;2023-05-07T06:27:29;32.90;75.50
10468;DHT22;5281;48.878;9.394;2023-05-07T06:29:56;32.90;74.70
10468;DHT22;5281;48.878;9.394;2023-05-07T06:32:24;33.70;69.40
10468;DHT22;5281;48.878;9.394;2023-05-07T06:34:51;34.10;65.80
10468;DHT22;5281;48.878;9.394;2023-05-07T06:37:18;33.30;65.20
10468;DHT22;5281;48.878;9.394;2023-05-07T06:39:45;31.60;68.70
10468;DHT22;5281;48.878;9.394;2023-05-07T06:42:11;30.50;71.80
10468;DHT22;5281;48.878;9.394;2023-05-07T06:44:38;31.00;71.00
10468;DHT22;5281;48.878;9.394;2023-05-07T06:47:05;32.40;68.30
10468;DHT22;5281;48.878;9.394;2023-05-07T06:49:33;33.80;65.60
10468;DHT22;5281;48.878;9.394;2023-05-07T06:52:00;35.60;60.90
10468;DHT22;5281;48.878;9.394;2023-05-07T06:54:26;37.10;56.50
10468;DHT22;5281;48.878;9.394;2023-05-07T06:56:53;37.30;55.50
10468;DHT22;5281;48.878;9.394;2023-05-07T06:59:20;36.20;56.10
10468;DHT22;5281;48.878;9.394;2023-05-07T07:01:47;35.50;55.60
10468;DHT22;5281;48.878;9.394;2023-05-07T07:04:13;34.00;57.60
10468;DHT22;5281;48.878;9.394;2023-05-07T07:06:41;32.40;60.00
10468;DHT22;5281;48.878;9.394;2023-05-07T07:09:08;30.80;63.30
10468;DHT22;5281;48.878;9.394;2023-05-07T07:11:35;29.60;66.80
10468;DHT22;5281;48.878;9.394;2023-05-07T07:14:02;29.70;67.50
10468;DHT22;5281;48.878;9.394;2023-05-07T07:16:30;30.10;66.60
10468;DHT22;5281;48.878;9.394;2023-05-07T07:18:57;30.20;67.20
10468;DHT22;5281;48.878;9.394;2023-05-07T07:21:23;31.30;64.20
10468;DHT22;5281;48.878;9.394;2023-05-07T07:23:52;31.80;63.40
10468;DHT22;5281;48.878;9.394;2023-05-07T07:26:18;32.60;60.80
10468;DHT22;5281;48.878;9.394;2023-05-07T07:28:46;33.60;59.20
10468;DHT22;5281;48.878;9.394;2023-05-07T07:31:13;34.50;57.50
10468;DHT22;5281;48.878;9.394;2023-05-07T07:33:40;34.90;56.10
10468;DHT22;5281;48.878;9.394;2023-05-07T07:36:07;35.20;54.90
10468;DHT22;5281;48.878;9.394;2023-05-07T07:38:34;35.30;54.80
10468;DHT22;5281;48.878;9.394;2023-05-07T07:41:02;36.00;54.70
10468;DHT22;5281;48.878;9.394;2023-05-07T07:43:29;37.00;53.00
10468;DHT22;5281;48.878;9.394;2023-05-07T07:45:56;37.50;51.00
10468;DHT22;5281;48.878;9.394;2023-05-07T07:48:22;36.60;51.90
10468;DHT22;5281;48.878;9.394;2023-05-07T07:50:49;35.50;53.40
10468;DHT22;5281;48.878;9.394;2023-05-07T07:53:17;34.20;55.30
10468;DHT22;5281;48.878;9.394;2023-05-07T07:55:43;32.90;57.00
10468;DHT22;5281;48.878;9.394;2023-05-07T07:58:11;31.90;58.90
10468;DHT22;5281;48.878;9.394;2023-05-07T08:00:38;31.60;59.40
10468;DHT22;5281;48.878;9.394;2023-05-07T08:03:05;31.40;59.70
10468;DHT22;5281;48.878;9.394;2023-05-07T08:05:32;30.70;61.70
10468;DHT22;5281;48.878;9.394;2023-05-07T08:07:59;30.30;63.00
10468;DHT22;5281;48.878;9.394;2023-05-07T08:10:26;30.00;63.90
10468;DHT22;5281;48.878;9.394;2023-05-07T08:12:52;29.70;64.80
10468;DHT22;5281;48.878;9.394;2023-05-07T08:15:20;29.60;65.40
10468;DHT22;5281;48.878;9.394;2023-05-07T08:17:47;29.30;65.90
10468;DHT22;5281;48.878;9.394;2023-05-07T08:20:14;28.70;68.00
10468;DHT22;5281;48.878;9.394;2023-05-07T08:22:40;27.90;70.40
10468;DHT22;5281;48.878;9.394;2023-05-07T08:25:08;27.20;72.60
10468;DHT22;5281;48.878;9.394;2023-05-07T08:27:35;26.80;74.10
10468;DHT22;5281;48.878;9.394;2023-05-07T08:30:02;26.50;74.60
10468;DHT22;5281;48.878;9.394;2023-05-07T08:32:30;26.10;76.60
10468;DHT22;5281;48.878;9.394;2023-05-07T08:34:57;25.90;77.60
10468;DHT22;5281;48.878;9.394;2023-05-07T08:37:24;25.80;78.60
10468;DHT22;5281;48.878;9.394;2023-05-07T08:39:50;25.90;78.80
10468;DHT22;5281;48.878;9.394;2023-05-07T08:42:17;25.80;79.30
10468;DHT22;5281;48.878;9.394;2023-05-07T08:44:45;25.70;80.10
10468;DHT22;5281;48.878;9.394;2023-05-07T08:47:13;25.70;80.60
10468;DHT22;5281;48.878;9.394;2023-05-07T08:49:42;25.50;81.30
10468;DHT22;5281;48.878;9.394;2023-05-07T08:52:08;25.10;83.40
10468;DHT22;5281;48.878;9.394;2023-05-07T08:54:37;25.00;84.40
10468;DHT22;5281;48.878;9.394;2023-05-07T08:57:03;25.00;84.50
10468;DHT22;5281;48.878;9.394;2023-05-07T08:59:30;25.20;84.60
10468;DHT22;5281;48.878;9.394;2023-05-07T09:01:57;25.40;83.80
10468;DHT22;5281;48.878;9.394;2023-05-07T09:04:24;25.50;84.40
10468;DHT22;5281;48.878;9.394;2023-05-07T09:06:52;25.60;84.00
10468;DHT22;5281;48.878;9.394;2023-05-07T09:09:18;25.70;83.70
10468;DHT22;5281;48.878;9.394;2023-05-07T09:11:45;25.80;82.80
10468;DHT22;5281;48.878;9.394;2023-05-07T09:14:12;25.80;82.80
10468;DHT22;5281;48.878;9.394;2023-05-07T09:16:39;25.80;83.10
10468;DHT22;5281;48.878;9.394;2023-05-07T09:19:05;25.90;83.10
10468;DHT22;5281;48.878;9.394;2023-05-07T09:21:32;26.10;83.00
10468;DHT22;5281;48.878;9.394;2023-05-07T09:24:00;26.20;82.30
10468;DHT22;5281;48.878;9.394;2023-05-07T09:26:27;26.30;81.90
10468;DHT22;5281;48.878;9.394;2023-05-07T09:28:54;26.20;82.60
10468;DHT22;5281;48.878;9.394;2023-05-07T09:31:20;26.20;82.70
10468;DHT22;5281;48.878;9.394;2023-05-07T09:33:48;26.30;82.30
10468;DHT22;5281;48.878;9.394;2023-05-07T09:36:16;26.30;82.20
10468;DHT22;5281;48.878;9.394;2023-05-07T09:38:42;26.50;81.50
10468;DHT22;5281;48.878;9.394;2023-05-07T09:41:12;26.80;81.50
10468;DHT22;5281;48.878;9.394;2023-05-07T09:43:40;26.90;79.40
10468;DHT22;5281;48.878;9.394;2023-05-07T09:46:07;27.20;79.20
10468;DHT22;5281;48.878;9.394;2023-05-07T09:48:38;27.30;78.80
10468;DHT22;5281;48.878;9.394;2023-05-07T09:51:14;27.40;78.00
10468;DHT22;5281;48.878;9.394;2023-05-07T09:53:43;27.30;77.40
10468;DHT22;5281;48.878;9.394;2023-05-07T09:56:14;27.30;77.20
10468;DHT22;5281;48.878;9.394;2023-05-07T09:58:41;27.40;76.90
10468;DHT22;5281;48.878;9.394;2023-05-07T10:01:10;27.10;78.10
10468;DHT22;5281;48.878;9.394;2023-05-07T10:03:40;27.00;77.90
10468;DHT22;5281;48.878;9.394;2023-05-07T10:06:08;27.00;78.00
10468;DHT22;5281;48.878;9.394;2023-05-07T10:08:36;27.20;77.60
10468;DHT22;5281;48.878;9.394;2023-05-07T10:11:04;27.30;77.90
10468;DHT22;5281;48.878;9.394;2023-05-07T10:13:32;27.60;76.40
10468;DHT22;5281;48.878;9.394;2023-05-07T10:16:02;27.80;75.80
10468;DHT22;5281;48.878;9.394;2023-05-07T10:18:30;27.80;75.50
10468;DHT22;5281;48.878;9.394;2023-05-07T10:21:04;27.80;75.50
10468;DHT22;5281;48.878;9.394;2023-05-07T10:23:33;27.40;76.20
10468;DHT22;5281;48.878;9.394;2023-05-07T10:26:03;26.80;77.10
10468;DHT22;5281;48.878;9.394;2023-05-07T10:28:39;26.50;77.60
10468;DHT22;5281;48.878;9.394;2023-05-07T10:31:18;26.30;77.60
10468;DHT22;5281;48.878;9.394;2023-05-07T10:33:51;26.20;77.90
10468;DHT22;5281;48.878;9.394;2023-05-07T10:36:19;26.10;77.30
10468;DHT22;5281;48.878;9.394;2023-05-07T10:38:47;26.20;77.40
10468;DHT22;5281;48.878;9.394;2023-05-07T10:41:14;26.30;77.40
10468;DHT22;5281;48.878;9.394;2023-05-07T10:43:45;26.40;77.50
10468;DHT22;5281;48.878;9.394;2023-05-07T10:46:15;26.60;77.50
10468;DHT22;5281;48.878;9.394;2023-05-07T10:49:10;26.90;77.50
10468;DHT22;5281;48.878;9.394;2023-05-07T10:51:38;27.30;76.90
10468;DHT22;5281;48.878;9.394;2023-05-07T10:54:18;27.70;74.60
10468;DHT22;5281;48.878;9.394;2023-05-07T10:56:45;28.10;74.40
10468;DHT22;5281;48.878;9.394;2023-05-07T10:59:34;28.40;74.10
10468;DHT22;5281;48.878;9.394;2023-05-07T11:02:07;28.50;73.10
10468;DHT22;5281;48.878;9.394;2023-05-07T11:04:35;28.40;73.30
10468;DHT22;5281;48.878;9.394;2023-05-07T11:07:26;28.40;72.70
10468;DHT22;5281;48.878;9.394;2023-05-07T11:10:01;28.40;72.50
10468;DHT22;5281;48.878;9.394;2023-05-07T11:12:49;28.30;72.90
10468;DHT22;5281;48.878;9.394;2023-05-07T11:15:45;28.40;72.60
10468;DHT22;5281;48.878;9.394;2023-05-07T11:18:14;28.70;71.40
10468;DHT22;5281;48.878;9.394;2023-05-07T11:20:49;28.90;70.10
10468;DHT22;5281;48.878;9.394;2023-05-07T11:26:46;29.00;69.90
10468;DHT22;5281;48.878;9.394;2023-05-07T11:29:14;28.70;70.10
10468;DHT22;5281;48.878;9.394;2023-05-07T11:31:43;28.50;71.10
10468;DHT22;5281;48.878;9.394;2023-05-07T11:34:11;28.30;71.20
10468;DHT22;5281;48.878;9.394;2023-05-07T11:36:42;28.40;71.50
10468;DHT22;5281;48.878;9.394;2023-05-07T11:39:29;28.60;70.70
10468;DHT22;5281;48.878;9.394;2023-05-07T11:41:57;28.80;69.20
10468;DHT22;5281;48.878;9.394;2023-05-07T11:44:24;28.70;68.50
10468;DHT22;5281;48.878;9.394;2023-05-07T11:46:52;28.70;69.30
10468;DHT22;5281;48.878;9.394;2023-05-07T11:49:18;28.60;69.10
10468;DHT22;5281;48.878;9.394;2023-05-07T11:51:45;28.70;68.80
10468;DHT22;5281;48.878;9.394;2023-05-07T11:54:15;28.70;68.80
10468;DHT22;5281;48.878;9.394;2023-05-07T11:56:44;28.70;69.30
10468;DHT22;5281;48.878;9.394;2023-05-07T11:59:16;28.80;69.70
10468;DHT22;5281;48.878;9.394;2023-05-07T12:01:45;29.00;68.60
10468;DHT22;5281;48.878;9.394;2023-05-07T12:04:13;29.10;69.10
10468;DHT22;5281;48.878;9.394;2023-05-07T12:06:40;29.30;67.50
10468;DHT22;5281;48.878;9.394;2023-05-07T12:09:07;29.40;67.60
10468;DHT22;5281;48.878;9.394;2023-05-07T12:11:36;29.50;66.40
10468;DHT22;5281;48.878;9.394;2023-05-07T12:14:05;29.60;65.80
10468;DHT22;5281;48.878;9.394;2023-05-07T12:16:32;29.80;66.30
10468;DHT22;5281;48.878;9.394;2023-05-07T12:18:59;29.90;66.50
10468;DHT22;5281;48.878;9.394;2023-05-07T12:21:27;29.90;66.10
10468;DHT22;5281;48.878;9.394;2023-05-07T12:23:54;29.60;65.80
10468;DHT22;5281;48.878;9.394;2023-05-07T12:26:21;29.40;66.00
10468;DHT22;5281;48.878;9.394;2023-05-07T12:28:49;29.30;66.20
10468;DHT22;5281;48.878;9.394;2023-05-07T12:31:16;29.20;66.90
10468;DHT22;5281;48.878;9.394;2023-05-07T12:33:43;28.90;66.50
10468;DHT22;5281;48.878;9.394;2023-05-07T12:36:12;28.50;67.50
10468;DHT22;5281;48.878;9.394;2023-05-07T12:38:41;28.10;67.60
10468;DHT22;5281;48.878;9.394;2023-05-07T12:41:11;27.80;67.60
10468;DHT22;5281;48.878;9.394;2023-05-07T12:43:38;27.60;67.30
10468;DHT22;5281;48.878;9.394;2023-05-07T12:46:06;27.60;67.60
10468;DHT22;5281;48.878;9.394;2023-05-07T12:48:35;27.60;67.90
10468;DHT22;5281;48.878;9.394;2023-05-07T12:51:02;27.60;68.30
10468;DHT22;5281;48.878;9.394;2023-05-07T12:53:30;27.50;68.90
10468;DHT22;5281;48.878;9.394;2023-05-07T12:55:59;27.40;69.50
10468;DHT22;5281;48.878;9.394;2023-05-07T12:58:27;27.20;69.50
10468;DHT22;5281;48.878;9.394;2023-05-07T13:00:55;27.10;69.90
10468;DHT22;5281;48.878;9.394;2023-05-07T13:03:26;27.00;70.10
10468;DHT22;5281;48.878;9.394;2023-05-07T13:05:54;26.90;70.10
10468;DHT22;5281;48.878;9.394;2023-05-07T13:08:26;26.80;70.00
10468;DHT22;5281;48.878;9.394;2023-05-07T13:10:53;26.70;70.00
10468;DHT22;5281;48.878;9.394;2023-05-07T13:13:21;26.60;70.60
10468;DHT22;5281;48.878;9.394;2023-05-07T13:15:48;26.30;71.20
10468;DHT22;5281;48.878;9.394;2023-05-07T13:18:15;26.10;71.80
10468;DHT22;5281;48.878;9.394;2023-05-07T13:20:41;26.00;73.80
10468;DHT22;5281;48.878;9.394;2023-05-07T13:23:08;25.80;75.10
10468;DHT22;5281;48.878;9.394;2023-05-07T13:25:35;25.70;78.50
10468;DHT22;5281;48.878;9.394;2023-05-07T13:28:01;25.60;80.80
10468;DHT22;5281;48.878;9.394;2023-05-07T13:30:31;25.50;82.00
10468;DHT22;5281;48.878;9.394;2023-05-07T13:32:57;25.20;85.00
10468;DHT22;5281;48.878;9.394;2023-05-07T13:35:24;25.00;88.50
10468;DHT22;5281;48.878;9.394;2023-05-07T13:37:51;24.70;90.80
10468;DHT22;5281;48.878;9.394;2023-05-07T13:40:20;24.40;91.20
10468;DHT22;5281;48.878;9.394;2023-05-07T13:42:47;24.10;93.20
10468;DHT22;5281;48.878;9.394;2023-05-07T13:45:13;23.80;94.00
10468;DHT22;5281;48.878;9.394;2023-05-07T13:47:42;23.40;94.00
10468;DHT22;5281;48.878;9.394;2023-05-07T13:50:10;23.10;95.70
10468;DHT22;5281;48.878;9.394;2023-05-07T13:52:39;22.80;96.50
10468;DHT22;5281;48.878;9.394;2023-05-07T13:55:07;22.60;96.90
10468;DHT22;5281;48.878;9.394;2023-05-07T13:57:33;22.40;97.50
10468;DHT22;5281;48.878;9.394;2023-05-07T14:00:01;22.30;97.20
10468;DHT22;5281;48.878;9.394;2023-05-07T14:02:27;22.10;97.10
10468;DHT22;5281;48.878;9.394;2023-05-07T14:04:55;21.90;98.20
10468;DHT22;5281;48.878;9.394;2023-05-07T14:07:22;21.60;99.90
10468;DHT22;5281;48.878;9.394;2023-05-07T14:09:49;21.10;99.90
10468;DHT22;5281;48.878;9.394;2023-05-07T14:12:16;20.40;99.90
10468;DHT22;5281;48.878;9.394;2023-05-07T14:14:43;19.80;99.90
10468;DHT22;5281;48.878;9.394;2023-05-07T14:17:11;19.70;99.90
10468;DHT22;5281;48.878;9.394;2023-05-07T14:19:37;19.60;99.90
10468;DHT22;5281;48.878;9.394;2023-05-07T14:22:05;19.50;99.90
10468;DHT22;5281;48.878;9.394;2023-05-07T14:24:32;19.40;99.90
10468;DHT22;5281;48.878;9.394;2023-05-07T14:26:59;19.60;99.90
10468;DHT22;5281;48.878;9.394;2023-05-07T14:29:26;19.80;99.90
10468;DHT22;5281;48.878;9.394;2023-05-07T14:31:53;20.00;99.90
10468;DHT22;5281;48.878;9.394;2023-05-07T14:34:20;20.10;99.90
10468;DHT22;5281;48.878;9.394;2023-05-07T14:36:47;20.30;99.90
10468;DHT22;5281;48.878;9.394;2023-05-07T14:39:15;20.40;99.90
10468;DHT22;5281;48.878;9.394;2023-05-07T14:41:42;20.40;99.90
10468;DHT22;5281;48.878;9.394;2023-05-07T14:44:11;20.40;99.90
10468;DHT22;5281;48.878;9.394;2023-05-07T14:46:38;20.30;99.90
10468;DHT22;5281;48.878;9.394;2023-05-07T14:49:06;20.30;99.90
10468;DHT22;5281;48.878;9.394;2023-05-07T14:51:39;20.40;99.90
10468;DHT22;5281;48.878;9.394;2023-05-07T14:54:05;20.40;99.90
10468;DHT22;5281;48.878;9.394;2023-05-07T14:56:34;20.40;99.90
10468;DHT22;5281;48.878;9.394;2023-05-07T14:59:02;20.50;99.90
10468;DHT22;5281;48.878;9.394;2023-05-07T15:01:29;20.60;99.90
10468;DHT22;5281;48.878;9.394;2023-05-07T15:03:55;20.70;99.90
10468;DHT22;5281;48.878;9.394;2023-05-07T15:06:22;20.70;99.90
10468;DHT22;5281;48.878;9.394;2023-05-07T15:08:50;20.80;99.90
10468;DHT22;5281;48.878;9.394;2023-05-07T15:11:16;20.80;99.90
10468;DHT22;5281;48.878;9.394;2023-05-07T15:13:46;20.90;99.90
10468;DHT22;5281;48.878;9.394;2023-05-07T15:16:13;20.90;99.90
10468;DHT22;5281;48.878;9.394;2023-05-07T15:18:40;21.00;99.90
10468;DHT22;5281;48.878;9.394;2023-05-07T15:21:07;21.00;99.90
10468;DHT22;5281;48.878;9.394;2023-05-07T15:23:34;21.00;99.90
10468;DHT22;5281;48.878;9.394;2023-05-07T15:26:00;21.00;99.90
10468;DHT22;5281;48.878;9.394;2023-05-07T15:28:28;20.90;99.90
10468;DHT22;5281;48.878;9.394;2023-05-07T15:30:56;20.80;99.90
10468;DHT22;5281;48.878;9.394;2023-05-07T15:33:23;20.80;99.90
10468;DHT22;5281;48.878;9.394;2023-05-07T15:35:51;20.80;99.90
10468;DHT22;5281;48.878;9.394;2023-05-07T15:38:21;20.80;99.90
10468;DHT22;5281;48.878;9.394;2023-05-07T15:40:48;20.90;99.90
10468;DHT22;5281;48.878;9.394;2023-05-07T15:43:15;20.90;99.90
10468;DHT22;5281;48.878;9.394;2023-05-07T15:45:43;21.00;99.90
10468;DHT22;5281;48.878;9.394;2023-05-07T15:48:11;21.00;99.90
10468;DHT22;5281;48.878;9.394;2023-05-07T15:50:38;21.00;99.90
10468;DHT22;5281;48.878;9.394;2023-05-07T15:53:05;21.00;99.90